Time;durP1;ratioP1;P1;durP2;ratioP2;P2;SDS_P1;SDS_P2;PMS_P1;PMS_P2;Temp;Humidity;BMP_temperature;BMP_pressure;BME280_temperature;BME280_humidity;BME280_pressure;Samples;Min_cycle;Max_cycle;Signal;HPM_P1;HPM_P2
2021/06/12 00:02:17;;;;;;;1999.90;999.90;;;21.10;99.90;;;;;;4974434;28;20331;-65
2021/06/12 00:04:43;;;;;;;1999.90;999.90;;;21.00;99.90;;;;;;4974069;28;20186;-65
2021/06/12 00:07:08;;;;;;;1999.90;999.90;;;21.00;99.90;;;;;;4974442;28;20259;-66
2021/06/12 00:09:34;;;;;;;1999.90;999.90;;;21.00;99.90;;;;;;4974262;28;20283;-65
2021/06/12 00:12:00;;;;;;;1999.90;999.90;;;21.00;99.90;;;;;;4974553;28;20178;-67
2021/06/12 00:14:26;;;;;;;1999.90;999.90;;;21.00;99.90;;;;;;4974022;28;20201;-65
2021/06/12 00:16:52;;;;;;;1999.90;999.90;;;21.00;99.90;;;;;;4974283;28;20690;-65
2021/06/12 00:19:17;;;;;;;1999.90;999.90;;;21.00;99.90;;;;;;4974171;28;20235;-65
2021/06/12 00:21:43;;;;;;;1999.90;999.90;;;20.90;99.90;;;;;;4973978;28;20411;-64
2021/06/12 00:24:09;;;;;;;1999.90;999.90;;;20.80;99.90;;;;;;4973996;28;20269;-65
2021/06/12 00:26:36;;;;;;;1999.90;999.90;;;20.70;99.90;;;;;;4974097;28;20209;-64
2021/06/12 00:29:02;;;;;;;1999.90;999.90;;;20.70;99.90;;;;;;4974007;28;20759;-65
2021/06/12 00:31:28;;;;;;;1999.90;999.90;;;20.50;99.90;;;;;;4974058;28;20826;-65
2021/06/12 00:33:54;;;;;;;1999.90;999.90;;;20.50;99.90;;;;;;4973670;28;20389;-65
2021/06/12 00:36:20;;;;;;;1999.90;999.90;;;20.50;99.90;;;;;;4973886;28;20408;-65
2021/06/12 00:38:47;;;;;;;1999.90;999.90;;;20.50;99.90;;;;;;4973661;28;20496;-66
2021/06/12 00:41:13;;;;;;;1999.90;999.90;;;20.60;99.90;;;;;;4973807;28;20189;-65
2021/06/12 00:43:41;;;;;;;1999.90;999.90;;;20.50;99.90;;;;;;4973884;28;20782;-65
2021/06/12 00:46:07;;;;;;;1999.90;999.90;;;20.60;99.90;;;;;;4973501;28;20460;-65
2021/06/12 00:48:32;;;;;;;1999.90;999.90;;;20.50;99.90;;;;;;4973666;28;20521;-65
2021/06/12 00:50:58;;;;;;;1999.90;999.90;;;20.50;99.90;;;;;;4972679;28;20835;-65
2021/06/12 00:53:42;;;;;;;1999.90;999.90;;;20.40;99.90;;;;;;4973540;28;20538;-65
2021/06/12 00:56:16;;;;;;;1999.90;999.90;;;20.40;99.90;;;;;;4973613;28;20665;-65
2021/06/12 00:58:43;;;;;;;1999.90;999.90;;;20.30;99.90;;;;;;4973495;28;20876;-64
2021/06/12 01:01:13;;;;;;;1999.90;999.90;;;20.30;99.90;;;;;;4973678;28;20412;-66
2021/06/12 01:03:40;;;;;;;1999.90;999.90;;;20.30;99.90;;;;;;4973731;28;20398;-65
2021/06/12 01:06:09;;;;;;;1999.90;999.90;;;20.30;99.90;;;;;;4973192;28;20991;-64
2021/06/12 01:08:36;;;;;;;1999.90;999.90;;;20.30;99.90;;;;;;4973408;28;20428;-66
2021/06/12 01:11:02;;;;;;;1999.90;999.90;;;20.30;99.90;;;;;;4973464;28;20790;-66
2021/06/12 01:13:57;;;;;;;1999.90;999.90;;;20.30;99.90;;;;;;4972078;28;20488;-64
2021/06/12 01:16:30;;;;;;;1999.90;999.90;;;20.30;99.90;;;;;;4973352;28;20930;-65
2021/06/12 01:18:59;;;;;;;1999.90;999.90;;;20.30;99.90;;;;;;4973377;28;21014;-66
2021/06/12 01:21:34;;;;;;;1999.90;999.90;;;20.40;99.90;;;;;;4973235;28;20962;-65
2021/06/12 01:24:12;;;;;;;1999.90;999.90;;;20.50;99.90;;;;;;4973099;28;20459;-66
2021/06/12 01:26:59;;;;;;;1999.90;999.90;;;20.50;99.90;;;;;;4973165;28;20458;-66
2021/06/12 01:29:51;;;;;;;1999.90;999.90;;;20.50;99.90;;;;;;4973107;28;20527;-66
2021/06/12 01:32:20;;;;;;;1999.90;999.90;;;20.40;99.90;;;;;;4973233;28;20481;-65
2021/06/12 01:34:47;;;;;;;1999.90;999.90;;;20.30;99.90;;;;;;4972886;28;20444;-65
2021/06/12 01:37:14;;;;;;;1999.90;999.90;;;20.40;99.90;;;;;;4973062;28;20444;-65
2021/06/12 01:39:40;;;;;;;1999.90;999.90;;;20.30;99.90;;;;;;4973032;28;20422;-66
2021/06/12 01:42:09;;;;;;;1999.90;999.90;;;20.30;99.90;;;;;;4973127;28;20928;-66
2021/06/12 01:44:36;;;;;;;1999.90;999.90;;;20.30;99.90;;;;;;4972807;28;20414;-65
2021/06/12 01:47:03;;;;;;;1999.90;999.90;;;20.40;99.90;;;;;;4972942;28;20451;-65
2021/06/12 01:49:31;;;;;;;1999.90;999.90;;;20.30;99.90;;;;;;4972889;28;20797;-64
2021/06/12 01:51:57;;;;;;;1999.90;999.90;;;20.30;99.90;;;;;;4972973;28;20418;-65
2021/06/12 01:54:24;;;;;;;1999.90;999.90;;;20.30;99.90;;;;;;4972672;28;20756;-65
2021/06/12 01:56:49;;;;;;;1999.90;999.90;;;20.40;99.90;;;;;;4972936;28;20923;-65
2021/06/12 01:59:15;;;;;;;1999.90;999.90;;;20.30;99.90;;;;;;4972811;28;20465;-65
2021/06/12 02:01:44;;;;;;;1999.90;999.90;;;20.30;99.90;;;;;;4972894;28;20646;-66
2021/06/12 02:04:11;;;;;;;1999.90;999.90;;;20.40;99.90;;;;;;4976090;28;20907;-66
2021/06/12 02:06:37;;;;;;;1999.90;999.90;;;20.40;99.90;;;;;;4976495;28;20445;-65
2021/06/12 02:09:04;;;;;;;1999.90;999.90;;;20.40;99.90;;;;;;4976585;28;20436;-65
2021/06/12 02:11:31;;;;;;;1999.90;999.90;;;20.30;99.90;;;;;;4976554;28;20409;-65
2021/06/12 02:13:58;;;;;;;1999.90;999.90;;;20.40;99.90;;;;;;4976257;28;20426;-65
2021/06/12 02:16:25;;;;;;;1999.90;999.90;;;20.40;99.90;;;;;;4976475;28;20424;-66
2021/06/12 02:18:52;;;;;;;1999.90;999.90;;;20.40;99.90;;;;;;4976395;28;20497;-66
2021/06/12 02:21:20;;;;;;;1999.90;999.90;;;20.40;99.90;;;;;;4976331;28;20472;-65
2021/06/12 02:23:49;;;;;;;1999.90;999.90;;;20.40;99.90;;;;;;4976113;28;20433;-65
2021/06/12 02:26:15;;;;;;;1999.90;999.90;;;20.40;99.90;;;;;;4976181;28;20445;-66
2021/06/12 02:28:43;;;;;;;1999.90;999.90;;;20.40;99.90;;;;;;4976170;28;20451;-66
2021/06/12 02:31:17;;;;;;;1999.90;999.90;;;20.40;99.90;;;;;;4976128;28;20395;-66
2021/06/12 02:33:45;;;;;;;1999.90;999.90;;;20.40;99.90;;;;;;4976202;28;20409;-65
2021/06/12 02:36:11;;;;;;;1999.90;999.90;;;20.30;99.90;;;;;;4976138;28;20420;-66
2021/06/12 02:38:37;;;;;;;1999.90;999.90;;;20.30;99.90;;;;;;4976110;28;20543;-65
2021/06/12 02:41:02;;;;;;;1999.90;999.90;;;20.40;99.90;;;;;;4976293;28;20442;-65
2021/06/12 02:43:28;;;;;;;1999.90;999.90;;;20.30;99.90;;;;;;4976130;28;20667;-64
2021/06/12 02:45:54;;;;;;;1999.90;999.90;;;20.30;99.90;;;;;;4976055;28;20607;-65
2021/06/12 02:48:24;;;;;;;1999.90;999.90;;;20.30;99.90;;;;;;4976085;28;20402;-67
2021/06/12 02:50:51;;;;;;;1999.90;999.90;;;20.30;99.90;;;;;;4975977;28;20410;-65
2021/06/12 02:53:17;;;;;;;1999.90;999.90;;;20.30;99.90;;;;;;4975900;28;20501;-65
2021/06/12 02:55:50;;;;;;;1999.90;999.90;;;20.30;99.90;;;;;;4975574;28;20418;-65
2021/06/12 02:58:21;;;;;;;1999.90;999.90;;;20.40;99.90;;;;;;4975557;28;20414;-66
2021/06/12 03:00:49;;;;;;;1999.90;999.90;;;20.40;99.90;;;;;;4975654;28;20476;-64
2021/06/12 03:03:15;;;;;;;1999.90;999.90;;;20.40;99.90;;;;;;4975850;28;20414;-66
2021/06/12 03:05:45;;;;;;;1999.90;999.90;;;20.40;99.90;;;;;;4975238;28;20560;-66
2021/06/12 03:08:15;;;;;;;1999.90;999.90;;;20.40;99.90;;;;;;4975603;28;20377;-65
2021/06/12 03:10:41;;;;;;;1999.90;999.90;;;20.40;99.90;;;;;;4975534;28;20389;-65
2021/06/12 03:13:11;;;;;;;1999.90;999.90;;;20.30;99.90;;;;;;4975499;28;20758;-65
2021/06/12 03:15:38;;;;;;;1999.90;999.90;;;20.30;99.90;;;;;;4974227;28;20968;-65
2021/06/12 03:18:04;;;;;;;1999.90;999.90;;;20.20;99.90;;;;;;4975588;28;20417;-65
2021/06/12 03:20:31;;;;;;;1999.90;999.90;;;20.20;99.90;;;;;;4975314;28;20440;-65
2021/06/12 03:23:01;;;;;;;1999.90;999.90;;;20.10;99.90;;;;;;4975398;28;20437;-66
2021/06/12 03:25:28;;;;;;;1999.90;999.90;;;20.10;99.90;;;;;;4975245;28;20498;-66
2021/06/12 03:27:54;;;;;;;1999.90;999.90;;;20.10;99.90;;;;;;4975190;28;20445;-64
2021/06/12 03:30:20;;;;;;;1999.90;999.90;;;20.00;99.90;;;;;;4975177;28;20521;-64
2021/06/12 03:32:47;;;;;;;1999.90;999.90;;;20.10;99.90;;;;;;4975212;28;20506;-65
2021/06/12 03:35:13;;;;;;;1999.90;999.90;;;20.00;99.90;;;;;;4974820;28;20572;-65
2021/06/12 03:37:40;;;;;;;1999.90;999.90;;;20.00;99.90;;;;;;4975004;28;20466;-65
2021/06/12 03:40:07;;;;;;;1999.90;999.90;;;19.90;99.90;;;;;;4974961;28;20998;-64
2021/06/12 03:42:34;;;;;;;1999.90;999.90;;;19.80;99.90;;;;;;4975026;28;20489;-65
2021/06/12 03:45:04;;;;;;;1999.90;999.90;;;19.80;99.90;;;;;;4974538;28;20568;-66
2021/06/12 03:47:32;;;;;;;1999.90;999.90;;;19.70;99.90;;;;;;4974871;28;20381;-65
2021/06/12 03:49:57;;;;;;;1999.90;999.90;;;19.70;99.90;;;;;;4974833;28;20520;-65
2021/06/12 03:52:27;;;;;;;1999.90;999.90;;;19.70;99.90;;;;;;4974773;28;20449;-66
2021/06/12 03:54:55;;;;;;;1999.90;999.90;;;19.70;99.90;;;;;;4974528;28;20172;-65
2021/06/12 03:57:20;;;;;;;1999.90;999.90;;;19.60;99.90;;;;;;4974809;28;20384;-65
2021/06/12 03:59:46;;;;;;;1999.90;999.90;;;19.60;99.90;;;;;;4974533;28;20810;-64
2021/06/12 04:02:15;;;;;;;1999.90;999.90;;;19.50;99.90;;;;;;4974706;28;20179;-67
2021/06/12 04:04:42;;;;;;;1999.90;999.90;;;19.40;99.90;;;;;;5013120;23;20506;-67
2021/06/12 04:07:08;;;;;;;1999.90;999.90;;;19.50;99.90;;;;;;4974600;28;20558;-67
2021/06/12 04:09:33;;;;;;;1999.90;999.90;;;19.50;99.90;;;;;;4974520;28;20981;-67
2021/06/12 04:11:59;;;;;;;1999.90;999.90;;;19.40;99.90;;;;;;4974460;28;20172;-67
2021/06/12 04:14:25;;;;;;;1999.90;999.90;;;19.40;99.90;;;;;;4974176;28;20178;-67
2021/06/12 04:16:51;;;;;;;1999.90;999.90;;;19.40;99.90;;;;;;4974285;28;20921;-67
2021/06/12 04:19:16;;;;;;;1999.90;999.90;;;19.40;99.90;;;;;;4974208;28;20180;-67
2021/06/12 04:21:42;;;;;;;1999.90;999.90;;;19.40;99.90;;;;;;4974270;28;20256;-68
2021/06/12 04:24:08;;;;;;;1999.90;999.90;;;19.30;99.90;;;;;;4973897;28;20252;-67
2021/06/12 04:26:33;;;;;;;1999.90;999.90;;;19.30;99.90;;;;;;4973726;28;20204;-66
2021/06/12 04:28:59;;;;;;;1999.90;999.90;;;19.30;99.90;;;;;;4974173;28;20166;-66
2021/06/12 04:31:24;;;;;;;1999.90;999.90;;;19.30;99.90;;;;;;4974063;28;20239;-67
2021/06/12 04:33:50;;;;;;;1999.90;999.90;;;19.30;99.90;;;;;;4972447;28;20173;-67
2021/06/12 04:36:16;;;;;;;1999.90;999.90;;;19.40;99.90;;;;;;4973825;28;20201;-67
2021/06/12 04:38:42;;;;;;;1999.90;999.90;;;19.30;99.90;;;;;;4973891;28;20408;-66
2021/06/12 04:41:07;;;;;;;1999.90;999.90;;;19.30;99.90;;;;;;4973914;28;20168;-66
2021/06/12 04:43:33;;;;;;;1999.90;999.90;;;19.30;99.90;;;;;;4973808;28;20674;-66
2021/06/12 04:45:58;;;;;;;1999.90;999.90;;;19.30;99.90;;;;;;4973405;28;20224;-67
2021/06/12 04:48:24;;;;;;;1999.90;999.90;;;19.30;99.90;;;;;;4973630;28;20648;-68
2021/06/12 04:50:50;;;;;;;1999.90;999.90;;;19.20;99.90;;;;;;4973749;28;20204;-67
2021/06/12 04:53:15;;;;;;;1999.90;999.90;;;19.10;99.90;;;;;;4973771;28;20177;-66
2021/06/12 04:55:42;;;;;;;1999.90;999.90;;;18.90;99.90;;;;;;4973324;28;20661;-68
2021/06/12 04:58:10;;;;;;;1999.90;999.90;;;18.90;99.90;;;;;;4973664;28;20177;-67
2021/06/12 05:00:37;;;;;;;1999.90;999.90;;;18.90;99.90;;;;;;4973626;28;20441;-67
2021/06/12 05:03:03;;;;;;;1999.90;999.90;;;18.90;99.90;;;;;;4973363;28;20428;-67
2021/06/12 05:05:29;;;;;;;1999.90;999.90;;;18.90;99.90;;;;;;4972930;28;20470;-67
2021/06/12 05:07:55;;;;;;;1999.90;999.90;;;18.90;99.90;;;;;;4973466;28;20402;-67
2021/06/12 05:10:20;;;;;;;1999.90;999.90;;;18.90;99.90;;;;;;4973574;28;20254;-67
2021/06/12 05:12:46;;;;;;;1999.90;999.90;;;19.00;99.90;;;;;;4973403;28;20658;-66
2021/06/12 05:15:12;;;;;;;1999.90;999.90;;;19.00;99.90;;;;;;4973199;28;20195;-68
2021/06/12 05:17:42;;;;;;;1999.90;999.90;;;19.00;99.90;;;;;;4973257;28;20197;-68
2021/06/12 05:20:11;;;;;;;1999.90;999.90;;;19.00;99.90;;;;;;4973551;28;20937;-68
2021/06/12 05:22:37;;;;;;;1999.90;999.90;;;19.10;99.90;;;;;;4973441;28;20427;-67
2021/06/12 05:25:04;;;;;;;1999.90;999.90;;;19.10;99.90;;;;;;4972800;28;20442;-68
2021/06/12 05:27:29;;;;;;;1999.90;999.90;;;19.20;99.90;;;;;;4973172;28;20952;-67
2021/06/12 05:29:55;;;;;;;1999.90;999.90;;;19.20;99.90;;;;;;4973183;28;20444;-67
2021/06/12 05:32:21;;;;;;;1999.90;999.90;;;19.20;99.90;;;;;;4973119;28;20188;-67
2021/06/12 05:34:46;;;;;;;1999.90;999.90;;;19.20;99.90;;;;;;4972853;28;20218;-66
2021/06/12 05:37:13;;;;;;;1999.90;999.90;;;19.30;99.90;;;;;;4973625;28;20262;-68
2021/06/12 05:39:39;;;;;;;1999.90;999.90;;;19.40;99.90;;;;;;4977203;28;20177;-67
2021/06/12 05:42:05;;;;;;;1999.90;999.90;;;19.50;99.90;;;;;;4977069;28;20900;-66
2021/06/12 05:44:30;;;;;;;1999.90;999.90;;;19.50;99.90;;;;;;4976779;28;20220;-67
2021/06/12 05:46:56;;;;;;;1999.90;999.90;;;19.60;99.90;;;;;;4976874;28;20466;-68
2021/06/12 05:49:22;;;;;;;1999.90;999.90;;;19.60;99.90;;;;;;4977005;28;20174;-67
2021/06/12 05:51:48;;;;;;;1999.90;999.90;;;19.70;99.90;;;;;;4976978;28;20721;-68
2021/06/12 05:54:14;;;;;;;1999.90;999.90;;;19.90;99.90;;;;;;4976653;28;20239;-66
2021/06/12 05:56:40;;;;;;;1999.90;999.90;;;19.90;99.90;;;;;;4976833;28;20418;-67
2021/06/12 05:59:06;;;;;;;1999.90;999.90;;;19.90;99.90;;;;;;4976840;28;20415;-67
2021/06/12 06:01:31;;;;;;;1999.90;999.90;;;19.90;99.90;;;;;;4976644;28;20507;-66
2021/06/12 06:03:57;;;;;;;1999.90;999.90;;;19.90;99.90;;;;;;4976412;28;20447;-66
2021/06/12 06:06:23;;;;;;;1999.90;999.90;;;19.80;99.90;;;;;;4976576;28;20207;-68
2021/06/12 06:08:48;;;;;;;1999.90;999.90;;;19.90;99.90;;;;;;4976809;28;20305;-67
2021/06/12 06:11:14;;;;;;;1999.90;999.90;;;19.90;99.90;;;;;;4976749;28;20172;-68
2021/06/12 06:13:42;;;;;;;1999.90;999.90;;;19.90;99.90;;;;;;4976474;28;20639;-66
2021/06/12 06:16:08;;;;;;;1999.90;999.90;;;19.90;99.90;;;;;;4976211;28;20198;-67
2021/06/12 06:18:36;;;;;;;1999.90;999.90;;;19.80;99.90;;;;;;4976508;28;20395;-67
2021/06/12 06:21:03;;;;;;;1999.90;999.90;;;19.80;99.90;;;;;;4976398;28;20409;-67
2021/06/12 06:23:28;;;;;;;1999.90;999.90;;;19.80;99.90;;;;;;4976419;28;20409;-67
2021/06/12 06:25:54;;;;;;;1999.90;999.90;;;19.80;99.90;;;;;;4975936;28;20454;-67
2021/06/12 06:28:20;;;;;;;1999.90;999.90;;;19.70;99.90;;;;;;4976288;28;20596;-67
2021/06/12 06:30:45;;;;;;;1999.90;999.90;;;19.60;99.90;;;;;;4976177;28;20179;-66
2021/06/12 06:33:11;;;;;;;1999.90;999.90;;;19.70;99.90;;;;;;4976213;28;20168;-68
2021/06/12 06:35:37;;;;;;;1999.90;999.90;;;19.70;99.90;;;;;;4975854;28;20185;-68
2021/06/12 06:38:03;;;;;;;1999.90;999.90;;;19.70;99.90;;;;;;4976120;28;20175;-67
2021/06/12 06:40:29;;;;;;;1999.90;999.90;;;19.90;99.90;;;;;;4976057;28;20175;-67
2021/06/12 06:42:55;;;;;;;1999.90;999.90;;;20.00;99.90;;;;;;4976036;28;20419;-67
2021/06/12 06:45:21;;;;;;;1999.90;999.90;;;20.10;99.90;;;;;;4975510;28;20959;-67
2021/06/12 06:47:48;;;;;;;1999.90;999.90;;;20.20;99.90;;;;;;4976157;28;20447;-67
2021/06/12 06:50:16;;;;;;;1999.90;999.90;;;20.30;99.90;;;;;;4975798;28;20417;-68
2021/06/12 06:52:42;;;;;;;1999.90;999.90;;;20.30;99.90;;;;;;4975884;28;20759;-68
2021/06/12 06:55:08;;;;;;;1999.90;999.90;;;20.30;99.90;;;;;;4975510;28;20488;-68
2021/06/12 06:57:34;;;;;;;1999.90;999.90;;;20.40;99.90;;;;;;4975808;28;20961;-66
2021/06/12 07:00:00;;;;;;;1999.90;999.90;;;20.40;99.90;;;;;;4975651;28;20406;-67
2021/06/12 07:02:25;;;;;;;1999.90;999.90;;;20.50;99.90;;;;;;4975742;28;20171;-66
2021/06/12 07:04:51;;;;;;;1999.90;999.90;;;20.30;99.90;;;;;;4975145;28;20629;-67
2021/06/12 07:07:17;;;;;;;1999.90;999.90;;;20.20;99.90;;;;;;4975561;28;20255;-66
2021/06/12 07:09:42;;;;;;;1999.90;999.90;;;20.10;99.90;;;;;;4975574;28;20169;-66
2021/06/12 07:12:10;;;;;;;1999.90;999.90;;;20.00;99.90;;;;;;4975555;28;20172;-67
2021/06/12 07:14:37;;;;;;;1999.90;999.90;;;19.90;99.90;;;;;;4975341;28;20209;-67
2021/06/12 07:17:03;;;;;;;1999.90;999.90;;;20.00;99.90;;;;;;4975428;28;20419;-67
2021/06/12 07:19:29;;;;;;;1999.90;999.90;;;19.90;99.90;;;;;;4975385;28;20500;-66
2021/06/12 07:21:55;;;;;;;1999.90;999.90;;;19.90;99.90;;;;;;4975230;28;20551;-67
2021/06/12 07:24:21;;;;;;;1999.90;999.90;;;20.00;99.90;;;;;;4974494;28;20192;-67
2021/06/12 07:26:47;;;;;;;1999.90;999.90;;;20.10;99.90;;;;;;4975104;28;20202;-67
2021/06/12 07:29:13;;;;;;;1999.90;999.90;;;20.10;99.90;;;;;;4975162;28;20404;-66
2021/06/12 07:31:40;;;;;;;1999.90;999.90;;;19.90;99.90;;;;;;4975171;28;20412;-67
2021/06/12 07:34:07;;;;;;;1999.90;999.90;;;19.70;99.90;;;;;;4974516;28;20586;-67
2021/06/12 07:36:32;;;;;;;1999.90;999.90;;;19.40;99.90;;;;;;4974192;28;20819;-67
2021/06/12 07:38:59;;;;;;;1999.90;999.90;;;19.40;99.90;;;;;;4974925;28;20496;-67
2021/06/12 07:41:25;;;;;;;1999.90;999.90;;;19.50;99.90;;;;;;4974875;28;20256;-67
2021/06/12 07:43:51;;;;;;;1999.90;999.90;;;19.50;99.90;;;;;;4974868;28;20439;-67
2021/06/12 07:46:17;;;;;;;1999.90;999.90;;;19.50;99.90;;;;;;4974671;28;21017;-67
2021/06/12 07:48:43;;;;;;;1999.90;999.90;;;19.50;99.90;;;;;;4975153;28;20631;-67
2021/06/12 07:51:08;;;;;;;1999.90;999.90;;;19.40;99.90;;;;;;4974820;28;20427;-67
2021/06/12 07:53:34;;;;;;;1999.90;999.90;;;19.40;99.90;;;;;;4974746;28;20273;-67
2021/06/12 07:56:00;;;;;;;1999.90;999.90;;;19.50;99.90;;;;;;4974343;28;20674;-66
2021/06/12 07:58:26;;;;;;;1999.90;999.90;;;19.60;99.90;;;;;;4974611;28;20233;-65
2021/06/12 08:00:51;;;;;;;1999.90;999.90;;;19.70;99.90;;;;;;4974079;28;20414;-67
2021/06/12 08:03:17;;;;;;;1999.90;999.90;;;19.80;99.90;;;;;;4974597;28;20254;-67
2021/06/12 08:05:43;;;;;;;1999.90;999.90;;;19.70;99.90;;;;;;4974093;28;20211;-67
2021/06/12 08:08:09;;;;;;;1999.90;999.90;;;19.70;99.90;;;;;;4974429;28;20174;-68
2021/06/12 08:10:34;;;;;;;1999.90;999.90;;;19.70;99.90;;;;;;4974334;28;20170;-67
2021/06/12 08:13:01;;;;;;;1999.90;999.90;;;19.70;99.90;;;;;;4974400;28;20624;-66
2021/06/12 08:15:27;;;;;;;1999.90;999.90;;;19.60;99.90;;;;;;4974001;28;20186;-66
2021/06/12 08:17:52;;;;;;;1999.90;999.90;;;19.60;99.90;;;;;;4974261;28;20401;-67
2021/06/12 08:20:18;;;;;;;1999.90;999.90;;;19.60;99.90;;;;;;4974234;28;20965;-66
2021/06/12 08:22:44;;;;;;;1999.90;999.90;;;19.60;99.90;;;;;;4974245;28;20715;-66
2021/06/12 08:25:10;;;;;;;1999.90;999.90;;;19.50;99.90;;;;;;4971283;28;20214;-67
2021/06/12 08:27:37;;;;;;;1999.90;999.90;;;19.40;99.90;;;;;;4973972;28;20205;-67
2021/06/12 08:30:04;;;;;;;1999.90;999.90;;;19.40;99.90;;;;;;4972947;28;20864;-65
2021/06/12 08:32:30;;;;;;;1999.90;999.90;;;19.30;99.90;;;;;;4972138;28;20390;-66
2021/06/12 08:34:55;;;;;;;1999.90;999.90;;;19.40;99.90;;;;;;4972581;28;20436;-67
2021/06/12 08:37:21;;;;;;;1999.90;999.90;;;19.30;99.90;;;;;;4972840;28;20725;-66
2021/06/12 08:39:47;;;;;;;1999.90;999.90;;;19.10;99.90;;;;;;4973137;28;20173;-67
2021/06/12 08:42:13;;;;;;;1999.90;999.90;;;19.10;99.90;;;;;;4971976;28;20421;-65
2021/06/12 08:44:41;;;;;;;1999.90;999.90;;;19.00;99.90;;;;;;4973077;28;20677;-69
2021/06/12 08:47:07;;;;;;;1999.90;999.90;;;19.00;99.90;;;;;;4973341;28;21017;-68
2021/06/12 08:49:33;;;;;;;1999.90;999.90;;;18.90;99.90;;;;;;4967557;28;20402;-68
2021/06/12 08:51:59;;;;;;;1999.90;999.90;;;18.70;99.90;;;;;;4971848;28;20413;-69
2021/06/12 08:54:26;;;;;;;1999.90;999.90;;;18.70;99.90;;;;;;4971016;28;20223;-69
2021/06/12 08:56:52;;;;;;;1999.90;999.90;;;18.70;99.90;;;;;;4971422;28;20173;-68
2021/06/12 08:59:19;;;;;;;1999.90;999.90;;;18.70;99.90;;;;;;4971551;28;20404;-69
2021/06/12 09:01:45;;;;;;;1999.90;999.90;;;18.80;99.90;;;;;;4971647;28;20416;-68
2021/06/12 09:04:24;;;;;;;1999.90;999.90;;;18.80;99.90;;;;;;4970647;28;20403;-68
2021/06/12 09:07:10;;;;;;;1999.90;999.90;;;18.80;99.90;;;;;;4971248;28;20447;-67
2021/06/12 09:09:40;;;;;;;1999.90;999.90;;;18.70;99.90;;;;;;4971096;28;20571;-68
2021/06/12 09:12:06;;;;;;;1999.90;999.90;;;18.70;99.90;;;;;;4970661;28;20399;-67
2021/06/12 09:14:31;;;;;;;1999.90;999.90;;;18.60;99.90;;;;;;4971056;28;20939;-68
2021/06/12 09:16:57;;;;;;;1999.90;999.90;;;18.60;99.90;;;;;;4971525;28;20417;-67
2021/06/12 09:19:23;;;;;;;1999.90;999.90;;;18.70;99.90;;;;;;4970950;28;20179;-67
2021/06/12 09:21:58;;;;;;;1999.90;999.90;;;18.60;99.90;;;;;;4971677;28;20206;-66
2021/06/12 09:24:27;;;;;;;1999.90;999.90;;;18.60;99.90;;;;;;4970678;28;20179;-67
2021/06/12 09:27:02;;;;;;;1999.90;999.90;;;18.60;99.90;;;;;;4970993;28;20635;-67
2021/06/12 09:29:47;;;;;;;1999.90;999.90;;;18.80;99.90;;;;;;4971261;28;21138;-67
2021/06/12 09:32:16;;;;;;;1999.90;999.90;;;18.90;99.90;;;;;;4971072;28;20399;-68
2021/06/12 09:34:44;;;;;;;1999.90;999.90;;;19.10;99.90;;;;;;4970973;28;20999;-68
2021/06/12 09:37:17;;;;;;;1999.90;999.90;;;19.20;99.90;;;;;;4971275;28;20835;-68
2021/06/12 09:40:00;;;;;;;1999.90;999.90;;;19.30;99.90;;;;;;4970667;28;20410;-67
2021/06/12 09:42:45;;;;;;;1999.90;999.90;;;19.40;99.90;;;;;;4971287;28;20408;-66
2021/06/12 09:45:21;;;;;;;1999.90;999.90;;;19.70;99.90;;;;;;4970527;28;20992;-68
2021/06/12 09:47:47;;;;;;;1999.90;999.90;;;20.10;99.90;;;;;;4970743;28;20400;-67
2021/06/12 09:50:15;;;;;;;1999.90;999.90;;;20.30;99.90;;;;;;4970811;28;20506;-67
2021/06/12 09:52:48;;;;;;;1999.90;999.90;;;20.40;99.90;;;;;;4971035;28;20211;-68
2021/06/12 09:55:26;;;;;;;1999.90;999.90;;;20.50;99.90;;;;;;4970393;28;20473;-66
2021/06/12 09:57:53;;;;;;;1999.90;999.90;;;21.10;99.90;;;;;;4971176;28;20405;-67
2021/06/12 10:00:29;;;;;;;1999.90;999.90;;;21.30;99.90;;;;;;4971048;28;20416;-68
2021/06/12 10:02:57;;;;;;;1999.90;999.90;;;21.30;99.90;;;;;;4970650;28;20402;-68
2021/06/12 10:05:23;;;;;;;1999.90;999.90;;;21.40;99.90;;;;;;4970099;28;20529;-68
2021/06/12 10:07:50;;;;;;;1999.90;999.90;;;21.50;99.90;;;;;;4970982;28;20380;-68
2021/06/12 10:10:16;;;;;;;1999.90;999.90;;;21.50;99.90;;;;;;4970403;28;20209;-68
2021/06/12 10:12:42;;;;;;;1999.90;999.90;;;21.30;99.90;;;;;;4970956;28;20900;-67
2021/06/12 10:15:10;;;;;;;1999.90;999.90;;;21.40;99.90;;;;;;4970494;28;20543;-68
2021/06/12 10:17:56;;;;;;;1999.90;999.90;;;21.30;99.90;;;;;;4970474;28;20372;-67
2021/06/12 10:20:24;;;;;;;1999.90;999.90;;;21.20;99.90;;;;;;4970564;28;21009;-67
2021/06/12 10:22:51;;;;;;;1999.90;999.90;;;21.00;99.90;;;;;;4970741;28;20461;-67
2021/06/12 10:25:19;;;;;;;1999.90;999.90;;;20.80;99.90;;;;;;4973193;28;20408;-67
2021/06/12 10:27:45;;;;;;;1999.90;999.90;;;20.80;99.90;;;;;;4974418;28;20829;-66
2021/06/12 10:30:13;;;;;;;1999.90;999.90;;;20.80;99.90;;;;;;4974076;28;20402;-66
2021/06/12 10:32:48;;;;;;;1999.90;999.90;;;20.80;99.90;;;;;;4973815;28;20384;-67
2021/06/12 10:35:19;;;;;;;1999.90;999.90;;;20.70;99.90;;;;;;4973640;28;20981;-66
2021/06/12 10:37:57;;;;;;;1999.90;999.90;;;20.70;99.90;;;;;;4974167;28;20990;-67
2021/06/12 10:40:49;;;;;;;1999.90;999.90;;;20.60;99.90;;;;;;4973664;28;20962;-66
2021/06/12 10:43:24;;;;;;;1999.90;999.90;;;20.40;99.90;;;;;;4974002;28;20417;-67
2021/06/12 10:46:02;;;;;;;1999.90;999.90;;;20.30;99.90;;;;;;4973020;28;20467;-66
2021/06/12 10:48:36;;;;;;;1999.90;999.90;;;20.30;99.90;;;;;;4973930;28;20430;-66
2021/06/12 10:51:06;;;;;;;1999.90;999.90;;;20.20;99.90;;;;;;4973942;28;20412;-68
2021/06/12 10:53:36;;;;;;;1999.90;999.90;;;20.20;99.90;;;;;;4973729;28;20837;-66
2021/06/12 10:56:10;;;;;;;1999.90;999.90;;;20.20;99.90;;;;;;4973777;28;20465;-68
2021/06/12 10:58:36;;;;;;;1999.90;999.90;;;20.10;99.90;;;;;;4973573;28;20877;-66
2021/06/12 11:01:16;;;;;;;1999.90;999.90;;;20.10;99.90;;;;;;4973539;28;20472;-66
2021/06/12 11:06:54;;;;;;;1999.90;999.90;;;20.10;99.90;;;;;;4973354;28;20563;-66
2021/06/12 11:09:20;;;;;;;1999.90;999.90;;;20.10;99.90;;;;;;4973195;28;20413;-67
2021/06/12 11:11:48;;;;;;;1999.90;999.90;;;20.10;99.90;;;;;;4973422;28;20439;-67
2021/06/12 11:14:25;;;;;;;1999.90;999.90;;;20.10;99.90;;;;;;4973237;28;20421;-67
2021/06/12 11:19:44;;;;;;;1999.90;999.90;;;20.50;99.90;;;;;;4973483;28;20414;-66
2021/06/12 11:22:36;;;;;;;1999.90;999.90;;;20.60;99.90;;;;;;4973389;28;21084;-66
2021/06/12 11:25:08;;;;;;;1999.90;999.90;;;20.80;99.90;;;;;;4972440;28;20440;-66
2021/06/12 11:27:35;;;;;;;1999.90;999.90;;;21.10;99.90;;;;;;4973238;28;20442;-67
2021/06/12 11:30:23;;;;;;;1999.90;999.90;;;21.40;99.90;;;;;;4973175;28;20411;-67
2021/06/12 11:32:59;;;;;;;1999.90;999.90;;;21.70;99.90;;;;;;4973227;28;20403;-68
2021/06/12 11:35:51;;;;;;;1999.90;999.90;;;21.90;99.90;;;;;;4971858;28;20408;-67
2021/06/12 11:38:33;;;;;;;1999.90;999.90;;;22.20;99.90;;;;;;4972833;28;20980;-66
2021/06/12 11:41:03;;;;;;;1999.90;999.90;;;22.10;99.90;;;;;;4972978;28;20415;-66
2021/06/12 11:43:42;;;;;;;1999.90;999.90;;;22.20;99.90;;;;;;4972992;28;20402;-66
2021/06/12 11:46:13;;;;;;;1999.90;999.90;;;22.20;99.90;;;;;;4972197;28;20705;-67
2021/06/12 11:48:40;;;;;;;1999.90;999.90;;;22.40;99.90;;;;;;4972797;28;20443;-68
2021/06/12 11:51:16;;;;;;;1999.90;999.90;;;22.50;99.90;;;;;;4973021;28;20408;-67
2021/06/12 11:53:44;;;;;;;1999.90;999.90;;;22.50;99.90;;;;;;4972169;28;20404;-66
2021/06/12 11:56:10;;;;;;;1999.90;999.90;;;22.80;99.90;;;;;;4972696;28;20424;-67
2021/06/12 11:58:55;;;;;;;1999.90;999.90;;;22.80;99.90;;;;;;4972638;28;20824;-69
2021/06/12 12:01:46;;;;;;;1999.90;999.90;;;23.00;99.90;;;;;;4972406;28;20415;-67
2021/06/12 12:04:19;;;;;;;1999.90;999.90;;;22.80;99.90;;;;;;4972159;28;20494;-67
2021/06/12 12:06:56;;;;;;;1999.90;999.90;;;22.70;99.90;;;;;;4972214;28;20457;-66
2021/06/12 12:09:24;;;;;;;1999.90;999.90;;;22.50;99.90;;;;;;4972224;28;20390;-66
2021/06/12 12:11:53;;;;;;;1999.90;999.90;;;22.50;99.90;;;;;;4972622;28;20814;-67